Terminal Aerodrome Forecast
Issued by NWS Jackson, MS

Home | Current Version | Previous Version | Text Only | Print | Product List | Glossary On
Versions: 1 2 3 4 5 6 7 8 9 10 11 12 13 14 15 16 17 18 19 20 21
000
FTUS44 KJAN 011100
TAFMEI
TAF
KMEI 011120Z 0112/0212 16003KT P6SM SCT008
     FM011530 18007KT P6SM SCT030
     FM020000 18005KT P6SM SCT040 SCT250
     FM020900 19002KT 4SM BR BKN250=

USA.gov is the U.S. government's official web portal to all federal, state and local government web resources and services.